Airfield :
LOGIN :

Register | Disclaimer

   EN    FR    IT 

 










Legend :    VFR   Marginal VFR   IFR   Intensive IFR   Very Intensive IFR
Visi :
Ceiling :
>= 8 km
>= 3000ft
5 to 8 km
1000 to 3000 ft
1500m to 5 km
500 to 1000 ft
800 to 1500m
200 to 500 ft
< 800m
< 200 ft
Symbols :   Thunderstorms  Fog  Heavy snow  Heavy precipitations  Wind > 20 kt
SIGMETs :     Misc.  Thunderstorms  Icing  Turbulence  Mountain Waves  Volcanic Ashes






- Airport Elevation : 821 ft
- IATA code : LYS


LFLL - Lyon St Exupéry / Satolas

CURRENT METAR :
  • 291000Z 28005KT 250V310 9999 -RA BKN011 BKN044 12/10 Q1003 NOSIG

EXPIRED METARs :
  • 290930Z 27004KT 9999 -RA BKN010 BKN060 12/10 Q1003 NOSIG
  • 290830Z VRB02KT 9999 -RA FEW011 BKN033 BKN053 11/10 Q1003 NOSIG
  • 290800Z 36003KT 9999 -RA FEW015 BKN032 BKN053 11/10 Q1003 NOSIG

TAF AMD TAF LFLL
Valid from the 29 at 09:00 until the 30 at 12:00 UTC


290928Z 2909/3012 36008KT 9999 BKN030
TEMPO 2909/2911 BKN010 BKN040
BECMG 2917/2919 NSC
BECMG 3001/3003 BKN012
TEMPO 3003/3009 3000 BR OVC006
PROB30 3003/3008 0600 FG VV///
BECMG 3009/3011 BKN025



MET'MAP, your aeronautical weather chart ! - Copyright ORBIFLY December 2007 - Disclaimer

ORBIFLY MET'MAP TEAM :

Programming & Development : Alexandra Zaïnal
Original concept : Baudouin d'Aumeries
Technical & hardware support : Manuel Goepfert
Assistance : Marc-Olivier Méhu




SOURCES & CREDITS :

   NOAA